Terminal Aerodrome Forecast
Issued by NWS

Home | Current Version | Previous Version | Text Only | Print | Product List | Glossary On
Versions: 1 2 3 4 5 6 7 8 9 10 11 12 13 14 15
000
FTAK31 PAJN 182325
TAFASI
TAF
PASI 182325Z 1900/1924 09012KT P6SM -SHRA OVC040
     FM190500 12010KT 5SM SHRA BR BKN030 OVC040
     FM190900 24010KT 4SM -SHRA BR OVC015
     FM191500 24006KT P6SM VCSH SCT015 OVC035=

USA.gov is the U.S. government's official web portal to all federal, state and local government web resources and services.